createdAt,value
2017-04-17T00:00:02.214Z,4.08
2017-04-17T00:00:06.527Z,4.08
2017-04-17T00:00:10.953Z,4.09
2017-04-17T00:00:15.267Z,4.09
2017-04-17T00:00:19.690Z,4.09
2017-04-17T00:00:24.120Z,4.08
2017-04-17T00:00:28.540Z,4.09
2017-04-17T00:00:32.968Z,4.09
2017-04-17T00:00:37.280Z,4.09
2017-04-17T00:00:41.476Z,4.09
2017-04-17T00:00:45.897Z,4.09
2017-04-17T00:00:50.315Z,4.09
2017-04-17T00:00:54.562Z,4.1
2017-04-17T00:00:58.986Z,4.09
2017-04-17T00:01:03.416Z,4.09
2017-04-17T00:01:07.718Z,4.1
2017-04-17T00:01:12.032Z,4.1
2017-04-17T00:01:16.342Z,4.1
2017-04-17T00:01:20.769Z,4.1
2017-04-17T00:01:25.191Z,4.09
2017-04-17T00:01:29.615Z,4.1
2017-04-17T00:01:34.035Z,4.09
2017-04-17T00:01:38.462Z,4.09
2017-04-17T00:01:42.890Z,4.08
2017-04-17T00:01:47.315Z,4.09
2017-04-17T00:01:51.506Z,4.09
2017-04-17T00:01:55.809Z,4.09
2017-04-17T00:02:00.237Z,4.09
2017-04-17T00:02:04.664Z,4.1
2017-04-17T00:02:09.102Z,4.1
2017-04-17T00:02:13.409Z,4.1
2017-04-17T00:02:17.834Z,4.09
2017-04-17T00:02:22.261Z,4.09
2017-04-17T00:02:26.692Z,4.1
2017-04-17T00:02:31.124Z,4.09
2017-04-17T00:02:35.318Z,4.1
2017-04-17T00:02:39.769Z,4.1
2017-04-17T00:02:44.197Z,4.1
2017-04-17T00:02:48.628Z,4.1
2017-04-17T00:02:52.967Z,4.1
2017-04-17T00:02:57.386Z,4.09
2017-04-17T00:03:01.816Z,4.09
2017-04-17T00:03:06.337Z,4.09
2017-04-17T00:03:10.764Z,4.09
2017-04-17T00:03:15.199Z,4.09
2017-04-17T00:03:19.631Z,4.09
2017-04-17T00:03:24.058Z,4.09
2017-04-17T00:03:28.485Z,4.09
2017-04-17T00:03:32.800Z,4.1
2017-04-17T00:03:37.230Z,4.09
2017-04-17T00:03:41.655Z,4.11
2017-04-17T00:03:46.091Z,4.1
2017-04-17T00:03:50.519Z,4.1
2017-04-17T00:03:54.950Z,4.1
2017-04-17T00:03:59.380Z,4.1
2017-04-17T00:04:03.806Z,4.1
2017-04-17T00:04:08.115Z,4.1
2017-04-17T00:04:12.692Z,4.11
2017-04-17T00:04:17.005Z,4.1
2017-04-17T00:04:21.440Z,4.1
2017-04-17T00:04:25.874Z,4.1
2017-04-17T00:04:30.194Z,4.1
2017-04-17T00:04:34.505Z,4.1
2017-04-17T00:04:38.934Z,4.11
2017-04-17T00:04:43.270Z,4.09
2017-04-17T00:04:47.700Z,4.11
2017-04-17T00:04:51.887Z,4.11
2017-04-17T00:04:56.192Z,4.1
2017-04-17T00:05:00.631Z,4.1
2017-04-17T00:05:05.088Z,4.11
2017-04-17T00:05:09.519Z,4.1
2017-04-17T00:05:13.712Z,4.11
2017-04-17T00:05:18.139Z,4.11
2017-04-17T00:05:22.645Z,4.11
2017-04-17T00:05:27.071Z,4.11
2017-04-17T00:05:31.498Z,4.11
2017-04-17T00:05:35.570Z,4.11
2017-04-17T00:05:40.000Z,4.12
2017-04-17T00:05:44.435Z,4.12
2017-04-17T00:05:48.893Z,4.11
2017-04-17T00:05:53.327Z,4.12
2017-04-17T00:05:57.524Z,4.11
2017-04-17T00:06:01.836Z,4.12
2017-04-17T00:06:06.274Z,4.12
2017-04-17T00:06:10.349Z,4.11
2017-04-17T00:06:14.781Z,4.11
2017-04-17T00:06:19.212Z,4.12
2017-04-17T00:06:23.524Z,4.11
2017-04-17T00:06:27.963Z,4.11
2017-04-17T00:06:32.243Z,4.12
2017-04-17T00:06:36.557Z,4.12
2017-04-17T00:06:40.870Z,4.11
2017-04-17T00:06:45.180Z,4.11
2017-04-17T00:06:49.499Z,4.12
2017-04-17T00:06:53.928Z,4.12
2017-04-17T00:06:58.360Z,4.12
2017-04-17T00:07:02.775Z,4.12
2017-04-17T00:07:07.202Z,4.12
2017-04-17T00:07:11.519Z,4.11
2017-04-17T00:07:15.730Z,4.12
2017-04-17T00:07:20.162Z,4.11
2017-04-17T00:07:24.593Z,4.11
2017-04-17T00:07:29.025Z,4.11
2017-04-17T00:07:33.161Z,4.1
2017-04-17T00:07:37.487Z,4.12
2017-04-17T00:07:41.924Z,4.11
2017-04-17T00:07:46.358Z,4.11
2017-04-17T00:07:50.677Z,4.11
2017-04-17T00:07:55.006Z,4.11
2017-04-17T00:07:59.322Z,4.11
2017-04-17T00:08:03.947Z,4.11
2017-04-17T00:08:08.269Z,4.11
2017-04-17T00:08:12.473Z,4.11
2017-04-17T00:08:16.675Z,4.11
2017-04-17T00:08:20.999Z,4.11
2017-04-17T00:08:25.300Z,4.1
2017-04-17T00:08:29.610Z,4.11
2017-04-17T00:08:33.932Z,4.1
2017-04-17T00:08:38.385Z,4.11
2017-04-17T00:08:42.965Z,4.11
2017-04-17T00:08:47.468Z,4.12
2017-04-17T00:08:51.901Z,4.11
2017-04-17T00:08:56.342Z,4.11
2017-04-17T00:09:00.780Z,4.12
2017-04-17T00:09:05.519Z,4.1
2017-04-17T00:09:09.720Z,4.1
2017-04-17T00:09:14.037Z,4.11
2017-04-17T00:09:18.356Z,4.11
2017-04-17T00:09:22.673Z,4.11
2017-04-17T00:09:27.104Z,4.11
2017-04-17T00:09:31.538Z,4.12
2017-04-17T00:09:35.857Z,4.11
2017-04-17T00:09:40.168Z,4.11
2017-04-17T00:09:44.501Z,4.12
2017-04-17T00:09:48.930Z,4.12
2017-04-17T00:09:53.214Z,4.12
2017-04-17T00:09:57.642Z,4.11
2017-04-17T00:10:02.132Z,4.11
2017-04-17T00:10:06.358Z,4.11
2017-04-17T00:10:10.691Z,4.11
2017-04-17T00:10:15.008Z,4.11
2017-04-17T00:10:19.321Z,4.11
2017-04-17T00:10:23.640Z,4.11
2017-04-17T00:10:28.079Z,4.11
2017-04-17T00:10:32.515Z,4.11
2017-04-17T00:10:36.846Z,4.11
2017-04-17T00:10:41.276Z,4.1
2017-04-17T00:10:45.711Z,4.11
2017-04-17T00:10:49.917Z,4.1
2017-04-17T00:10:54.393Z,4.1
2017-04-17T00:10:59.070Z,4.1
2017-04-17T00:11:03.518Z,4.09
2017-04-17T00:11:07.960Z,4.1
2017-04-17T00:11:12.305Z,4.1
2017-04-17T00:11:16.554Z,4.11
2017-04-17T00:11:20.863Z,4.1
2017-04-17T00:11:25.300Z,4.1
2017-04-17T00:11:29.734Z,4.1
2017-04-17T00:11:34.156Z,4.1
2017-04-17T00:11:38.579Z,4.1
2017-04-17T00:11:43.001Z,4.11
2017-04-17T00:11:47.423Z,4.11
2017-04-17T00:11:51.849Z,4.11
2017-04-17T00:11:56.269Z,4.1
2017-04-17T00:12:00.692Z,4.11
2017-04-17T00:12:05.362Z,4.1
2017-04-17T00:12:09.786Z,4.11
2017-04-17T00:12:13.975Z,4.11
2017-04-17T00:12:18.166Z,4.12
2017-04-17T00:12:22.591Z,4.11
2017-04-17T00:12:27.017Z,4.11
2017-04-17T00:12:31.445Z,4.1
2017-04-17T00:12:35.887Z,4.1
2017-04-17T00:12:40.324Z,4.11
2017-04-17T00:12:44.641Z,4.1
2017-04-17T00:12:49.073Z,4.1
2017-04-17T00:12:53.507Z,4.11
2017-04-17T00:12:57.943Z,4.11
2017-04-17T00:13:02.369Z,4.11
2017-04-17T00:13:06.801Z,4.1
2017-04-17T00:13:11.219Z,4.11
2017-04-17T00:13:15.409Z,4.09
2017-04-17T00:13:19.723Z,4.1
2017-04-17T00:13:24.145Z,4.11
2017-04-17T00:13:28.575Z,4.1
2017-04-17T00:13:33.007Z,4.11
2017-04-17T00:13:37.441Z,4.09
2017-04-17T00:13:41.761Z,4.1
2017-04-17T00:13:46.068Z,4.1
2017-04-17T00:13:50.491Z,4.1
2017-04-17T00:13:54.916Z,4.1
2017-04-17T00:13:59.344Z,4.1
2017-04-17T00:14:03.779Z,4.11
2017-04-17T00:14:07.845Z,4.11
2017-04-17T00:14:12.156Z,4.11
2017-04-17T00:14:16.468Z,4.1
2017-04-17T00:14:20.907Z,4.11
2017-04-17T00:14:25.377Z,4.1
2017-04-17T00:14:29.810Z,4.1
2017-04-17T00:14:34.240Z,4.11
2017-04-17T00:14:38.547Z,4.1
2017-04-17T00:14:42.984Z,4.1
2017-04-17T00:14:47.417Z,4.1
2017-04-17T00:14:51.842Z,4.1
2017-04-17T00:14:56.268Z,4.09
2017-04-17T00:15:00.701Z,4.11
2017-04-17T00:15:05.018Z,4.1
2017-04-17T00:15:09.464Z,4.1
2017-04-17T00:15:13.889Z,4.1
2017-04-17T00:15:18.317Z,4.1
2017-04-17T00:15:22.756Z,4.1
2017-04-17T00:15:27.332Z,4.1
2017-04-17T00:15:31.770Z,4.11
2017-04-17T00:15:36.202Z,4.1
2017-04-17T00:15:40.629Z,4.1
2017-04-17T00:15:45.057Z,4.09
2017-04-17T00:15:49.488Z,4.1
2017-04-17T00:15:53.717Z,4.1
2017-04-17T00:15:58.142Z,4.1
2017-04-17T00:16:02.567Z,4.09
2017-04-17T00:16:06.760Z,4.09
2017-04-17T00:16:11.193Z,4.1
2017-04-17T00:16:15.419Z,4.1
2017-04-17T00:16:19.844Z,4.11
2017-04-17T00:16:24.158Z,4.11
2017-04-17T00:16:28.584Z,4.1
2017-04-17T00:16:33.014Z,4.11
2017-04-17T00:16:37.715Z,4.11
2017-04-17T00:16:42.140Z,4.1
2017-04-17T00:16:46.567Z,4.1
2017-04-17T00:16:50.991Z,4.1
2017-04-17T00:16:55.424Z,4.1
2017-04-17T00:16:59.887Z,4.11
2017-04-17T00:17:04.128Z,4.11
2017-04-17T00:17:08.555Z,4.1
2017-04-17T00:17:12.979Z,4.11
2017-04-17T00:17:17.299Z,4.1
2017-04-17T00:17:21.729Z,4.11
2017-04-17T00:17:26.153Z,4.11
2017-04-17T00:17:30.580Z,4.11
2017-04-17T00:17:35.009Z,4.11
2017-04-17T00:17:39.443Z,4.12
2017-04-17T00:17:44.023Z,4.12
2017-04-17T00:17:48.455Z,4.11
2017-04-17T00:17:52.881Z,4.12
2017-04-17T00:17:57.308Z,4.11
2017-04-17T00:18:01.738Z,4.11
2017-04-17T00:18:06.169Z,4.13
2017-04-17T00:18:10.476Z,4.13
2017-04-17T00:18:14.909Z,4.13
2017-04-17T00:18:19.339Z,4.14
2017-04-17T00:18:23.773Z,4.13
2017-04-17T00:18:28.211Z,4.13
2017-04-17T00:18:32.640Z,4.13
2017-04-17T00:18:37.092Z,4.13
2017-04-17T00:18:41.531Z,4.14
2017-04-17T00:18:45.989Z,4.14
2017-04-17T00:18:50.426Z,4.13
2017-04-17T00:18:54.852Z,4.14
2017-04-17T00:18:59.158Z,4.14
2017-04-17T00:19:03.585Z,4.13
2017-04-17T00:19:08.045Z,4.15
2017-04-17T00:19:12.470Z,4.15
2017-04-17T00:19:16.664Z,4.15
2017-04-17T00:19:21.093Z,4.15
2017-04-17T00:19:25.521Z,4.15
2017-04-17T00:19:29.953Z,4.15
2017-04-17T00:19:34.376Z,4.16
2017-04-17T00:19:38.795Z,4.14
2017-04-17T00:19:43.095Z,4.15
2017-04-17T00:19:47.520Z,4.16
2017-04-17T00:19:51.960Z,4.16
2017-04-17T00:19:56.383Z,4.16
2017-04-17T00:20:00.884Z,4.15
2017-04-17T00:20:05.373Z,4.16
2017-04-17T00:20:09.588Z,4.16
2017-04-17T00:20:13.781Z,4.16
2017-04-17T00:20:18.199Z,4.16
2017-04-17T00:20:22.626Z,4.17
2017-04-17T00:20:26.933Z,4.17
2017-04-17T00:20:31.243Z,4.17
2017-04-17T00:20:35.673Z,4.17
2017-04-17T00:20:40.097Z,4.18
2017-04-17T00:20:44.522Z,4.19
2017-04-17T00:20:48.947Z,4.17
2017-04-17T00:20:53.386Z,4.19
2017-04-17T00:20:57.693Z,4.18
2017-04-17T00:21:02.117Z,4.18
2017-04-17T00:21:06.187Z,4.18
2017-04-17T00:21:10.643Z,4.17
2017-04-17T00:21:14.957Z,4.18
2017-04-17T00:21:19.382Z,4.18
2017-04-17T00:21:23.807Z,4.18
2017-04-17T00:21:28.117Z,4.19
2017-04-17T00:21:32.537Z,4.19
2017-04-17T00:21:36.964Z,4.19
2017-04-17T00:21:41.394Z,4.19
2017-04-17T00:21:45.822Z,4.2
2017-04-17T00:21:50.128Z,4.19
2017-04-17T00:21:54.557Z,4.2
2017-04-17T00:21:58.979Z,4.2
2017-04-17T00:22:03.194Z,4.2
2017-04-17T00:22:07.498Z,4.21
2017-04-17T00:22:11.799Z,4.2
2017-04-17T00:22:15.990Z,4.2
2017-04-17T00:22:20.430Z,4.2
2017-04-17T00:22:24.860Z,4.21
2017-04-17T00:22:29.288Z,4.21
2017-04-17T00:22:33.711Z,4.21
2017-04-17T00:22:38.134Z,4.21
2017-04-17T00:22:42.571Z,4.21
2017-04-17T00:22:46.996Z,4.21
2017-04-17T00:22:51.418Z,4.21
2017-04-17T00:22:55.850Z,4.21
2017-04-17T00:23:00.282Z,4.21
2017-04-17T00:23:04.833Z,4.2
2017-04-17T00:23:09.145Z,4.21
2017-04-17T00:23:13.573Z,4.21
2017-04-17T00:23:17.886Z,4.22
2017-04-17T00:23:22.363Z,4.2
2017-04-17T00:23:26.831Z,4.22
2017-04-17T00:23:31.260Z,4.22
2017-04-17T00:23:35.689Z,4.22
2017-04-17T00:23:40.121Z,4.21
2017-04-17T00:23:44.555Z,4.22
2017-04-17T00:23:49.001Z,4.23
2017-04-17T00:23:53.338Z,4.22
2017-04-17T00:23:57.639Z,4.23
2017-04-17T00:24:02.217Z,4.22
2017-04-17T00:24:06.650Z,4.23
2017-04-17T00:24:10.849Z,4.23
2017-04-17T00:24:15.165Z,4.23
2017-04-17T00:24:19.595Z,4.23
2017-04-17T00:24:24.025Z,4.24
2017-04-17T00:24:28.661Z,4.23
2017-04-17T00:24:33.090Z,4.23
2017-04-17T00:24:37.517Z,4.25
2017-04-17T00:24:41.946Z,4.24
2017-04-17T00:24:46.365Z,4.24
2017-04-17T00:24:50.443Z,4.24
2017-04-17T00:24:54.754Z,4.24
2017-04-17T00:24:59.068Z,4.24
2017-04-17T00:25:03.496Z,4.24
2017-04-17T00:25:07.917Z,4.25
2017-04-17T00:25:12.344Z,4.26
2017-04-17T00:25:16.419Z,4.25
2017-04-17T00:25:20.846Z,4.25
2017-04-17T00:25:25.268Z,4.27
2017-04-17T00:25:29.692Z,4.26
2017-04-17T00:25:34.121Z,4.26
2017-04-17T00:25:38.540Z,4.26
2017-04-17T00:25:42.966Z,4.27
2017-04-17T00:25:47.274Z,4.26
2017-04-17T00:25:51.579Z,4.26
2017-04-17T00:25:55.891Z,4.27
2017-04-17T00:26:00.313Z,4.27
2017-04-17T00:26:04.740Z,4.27
2017-04-17T00:26:08.931Z,4.27
2017-04-17T00:26:13.355Z,4.27
2017-04-17T00:26:17.665Z,4.27
2017-04-17T00:26:22.086Z,4.28
2017-04-17T00:26:26.508Z,4.28
2017-04-17T00:26:30.930Z,4.28
2017-04-17T00:26:35.357Z,4.28
2017-04-17T00:26:39.798Z,4.28
2017-04-17T00:26:44.373Z,4.28
2017-04-17T00:26:48.679Z,4.29
2017-04-17T00:26:53.106Z,4.28
2017-04-17T00:26:57.530Z,4.29
2017-04-17T00:27:01.956Z,4.29
2017-04-17T00:27:06.269Z,4.29
2017-04-17T00:27:10.574Z,4.29
2017-04-17T00:27:15.014Z,4.29
2017-04-17T00:27:19.436Z,4.3
2017-04-17T00:27:23.873Z,4.3
2017-04-17T00:27:28.295Z,4.3
2017-04-17T00:27:32.721Z,4.31
2017-04-17T00:27:37.150Z,4.3
2017-04-17T00:27:41.587Z,4.31
2017-04-17T00:27:45.916Z,4.31
2017-04-17T00:27:50.385Z,4.31
2017-04-17T00:27:54.862Z,4.3
2017-04-17T00:27:59.292Z,4.31
2017-04-17T00:28:03.712Z,4.32
2017-04-17T00:28:08.147Z,4.32
2017-04-17T00:28:12.347Z,4.32
2017-04-17T00:28:16.669Z,4.32
2017-04-17T00:28:21.099Z,4.32
2017-04-17T00:28:25.531Z,4.33
2017-04-17T00:28:29.964Z,4.33
2017-04-17T00:28:34.404Z,4.33
2017-04-17T00:28:38.720Z,4.34
2017-04-17T00:28:42.917Z,4.33
2017-04-17T00:28:47.351Z,4.33
2017-04-17T00:28:51.791Z,4.33
2017-04-17T00:28:56.219Z,4.34
2017-04-17T00:29:00.658Z,4.34
2017-04-17T00:29:05.086Z,4.34
2017-04-17T00:29:09.512Z,4.34
2017-04-17T00:29:13.832Z,4.34
2017-04-17T00:29:18.262Z,4.34
2017-04-17T00:29:22.685Z,4.34
2017-04-17T00:29:27.115Z,4.34
2017-04-17T00:29:31.544Z,4.34
2017-04-17T00:29:35.861Z,4.35
2017-04-17T00:29:40.288Z,4.34
2017-04-17T00:29:44.710Z,4.35
2017-04-17T00:29:49.019Z,4.35
2017-04-17T00:29:53.439Z,4.36
2017-04-17T00:29:57.869Z,4.35
2017-04-17T00:30:02.298Z,4.36
2017-04-17T00:30:06.734Z,4.35
2017-04-17T00:30:11.462Z,4.35
2017-04-17T00:30:15.768Z,4.35
2017-04-17T00:30:20.076Z,4.35
2017-04-17T00:30:24.383Z,4.36
2017-04-17T00:30:28.688Z,4.36
2017-04-17T00:30:33.118Z,4.36
2017-04-17T00:30:37.557Z,4.36
2017-04-17T00:30:41.986Z,4.36
2017-04-17T00:30:46.414Z,4.37
2017-04-17T00:30:50.836Z,4.36
2017-04-17T00:30:55.136Z,4.37
2017-04-17T00:30:59.562Z,4.36
2017-04-17T00:31:03.993Z,4.37
2017-04-17T00:31:08.417Z,4.38
2017-04-17T00:31:12.850Z,4.38
2017-04-17T00:31:17.687Z,4.38
2017-04-17T00:31:22.120Z,4.38
2017-04-17T00:31:26.440Z,4.38
2017-04-17T00:31:30.859Z,4.38
2017-04-17T00:31:35.290Z,4.38
2017-04-17T00:31:39.598Z,4.38
2017-04-17T00:31:44.018Z,4.38
2017-04-17T00:31:48.450Z,4.39
2017-04-17T00:31:52.873Z,4.39
2017-04-17T00:31:57.292Z,4.39
2017-04-17T00:32:01.717Z,4.4
2017-04-17T00:32:06.149Z,4.39
2017-04-17T00:32:10.367Z,4.39
2017-04-17T00:32:14.560Z,4.4
2017-04-17T00:32:18.866Z,4.4
2017-04-17T00:32:23.455Z,4.41
2017-04-17T00:32:27.884Z,4.4
2017-04-17T00:32:32.325Z,4.41
2017-04-17T00:32:36.640Z,4.4
2017-04-17T00:32:41.077Z,4.41
2017-04-17T00:32:45.505Z,4.42
2017-04-17T00:32:49.930Z,4.41
2017-04-17T00:32:54.390Z,4.42
2017-04-17T00:32:58.822Z,4.41
2017-04-17T00:33:03.246Z,4.41
2017-04-17T00:33:07.435Z,4.41
2017-04-17T00:33:11.750Z,4.42
2017-04-17T00:33:16.104Z,4.42
2017-04-17T00:33:20.530Z,4.42
2017-04-17T00:33:24.961Z,4.43
2017-04-17T00:33:29.476Z,4.43
2017-04-17T00:33:33.921Z,4.43
2017-04-17T00:33:38.371Z,4.43
2017-04-17T00:33:42.798Z,4.43
2017-04-17T00:33:47.230Z,4.44
2017-04-17T00:33:51.541Z,4.43
2017-04-17T00:33:55.966Z,4.44
2017-04-17T00:34:00.185Z,4.44
2017-04-17T00:34:04.863Z,4.43
2017-04-17T00:34:09.283Z,4.43
2017-04-17T00:34:13.703Z,4.44
2017-04-17T00:34:18.146Z,4.43
2017-04-17T00:34:22.579Z,4.44
2017-04-17T00:34:27.004Z,4.44
2017-04-17T00:34:31.429Z,4.44
2017-04-17T00:34:35.853Z,4.44
2017-04-17T00:34:40.303Z,4.44
2017-04-17T00:34:44.773Z,4.43
2017-04-17T00:34:49.197Z,4.43
2017-04-17T00:34:53.507Z,4.44
2017-04-17T00:34:57.938Z,4.44
2017-04-17T00:35:02.371Z,4.44
2017-04-17T00:35:06.676Z,4.43
2017-04-17T00:35:11.099Z,4.43
2017-04-17T00:35:15.284Z,4.44
2017-04-17T00:35:19.711Z,4.44
2017-04-17T00:35:24.141Z,4.45
2017-04-17T00:35:28.451Z,4.44
2017-04-17T00:35:32.873Z,4.43
2017-04-17T00:35:37.298Z,4.44
2017-04-17T00:35:41.726Z,4.43
2017-04-17T00:35:46.231Z,4.44
2017-04-17T00:35:50.659Z,4.44
2017-04-17T00:35:55.081Z,4.44
2017-04-17T00:35:59.503Z,4.44
2017-04-17T00:36:04.111Z,4.43
2017-04-17T00:36:08.420Z,4.44
2017-04-17T00:36:12.850Z,4.43
2017-04-17T00:36:17.159Z,4.43
2017-04-17T00:36:21.889Z,4.44
2017-04-17T00:36:26.314Z,4.44
2017-04-17T00:36:30.739Z,4.44
2017-04-17T00:36:35.165Z,4.43
2017-04-17T00:36:39.589Z,4.44
2017-04-17T00:36:43.895Z,4.43
2017-04-17T00:36:48.205Z,4.42
2017-04-17T00:36:52.808Z,4.43
2017-04-17T00:36:57.387Z,4.43
2017-04-17T00:37:01.884Z,4.43
2017-04-17T00:37:06.193Z,4.43
2017-04-17T00:37:10.617Z,4.42
2017-04-17T00:37:14.810Z,4.44
2017-04-17T00:37:19.238Z,4.44
2017-04-17T00:37:23.661Z,4.43
2017-04-17T00:37:28.081Z,4.44
2017-04-17T00:37:32.529Z,4.44
2017-04-17T00:37:36.957Z,4.43
2017-04-17T00:37:41.389Z,4.43
2017-04-17T00:37:45.816Z,4.45
2017-04-17T00:37:50.254Z,4.45
2017-04-17T00:37:54.677Z,4.44
2017-04-17T00:37:59.122Z,4.45
2017-04-17T00:38:03.441Z,4.45
2017-04-17T00:38:07.752Z,4.44
2017-04-17T00:38:12.178Z,4.44
2017-04-17T00:38:16.500Z,4.45
2017-04-17T00:38:20.932Z,4.44
2017-04-17T00:38:25.364Z,4.46
2017-04-17T00:38:29.788Z,4.46
2017-04-17T00:38:34.110Z,4.46
2017-04-17T00:38:38.543Z,4.47
2017-04-17T00:38:42.981Z,4.46
2017-04-17T00:38:47.408Z,4.46
2017-04-17T00:38:51.714Z,4.46
2017-04-17T00:38:55.900Z,4.46
2017-04-17T00:39:00.338Z,4.47
2017-04-17T00:39:04.764Z,4.46
2017-04-17T00:39:09.376Z,4.47
2017-04-17T00:39:13.683Z,4.48
2017-04-17T00:39:17.996Z,4.47
2017-04-17T00:39:22.421Z,4.48
2017-04-17T00:39:26.861Z,4.48
2017-04-17T00:39:31.294Z,4.47
2017-04-17T00:39:35.718Z,4.49
2017-04-17T00:39:40.139Z,4.48
2017-04-17T00:39:44.568Z,4.48
2017-04-17T00:39:49.012Z,4.49
2017-04-17T00:39:53.316Z,4.48
2017-04-17T00:39:57.627Z,4.48
2017-04-17T00:40:02.061Z,4.49
2017-04-17T00:40:06.256Z,4.49
2017-04-17T00:40:10.564Z,4.49
2017-04-17T00:40:14.992Z,4.49
2017-04-17T00:40:19.402Z,4.49
2017-04-17T00:40:23.825Z,4.5
2017-04-17T00:40:28.255Z,4.5
2017-04-17T00:40:32.685Z,4.49
2017-04-17T00:40:36.889Z,4.5
2017-04-17T00:40:41.194Z,4.51
2017-04-17T00:40:45.618Z,4.51
2017-04-17T00:40:50.046Z,4.51
2017-04-17T00:40:54.355Z,4.51
2017-04-17T00:40:58.778Z,4.51
2017-04-17T00:41:03.252Z,4.51
2017-04-17T00:41:07.683Z,4.52
2017-04-17T00:41:12.111Z,4.5
2017-04-17T00:41:16.299Z,4.52
2017-04-17T00:41:20.725Z,4.51
2017-04-17T00:41:25.517Z,4.52
2017-04-17T00:41:29.940Z,4.52
2017-04-17T00:41:34.363Z,4.52
2017-04-17T00:41:38.800Z,4.52
2017-04-17T00:41:43.230Z,4.52
2017-04-17T00:41:47.662Z,4.52
2017-04-17T00:41:51.966Z,4.52
2017-04-17T00:41:56.272Z,4.53
2017-04-17T00:42:00.697Z,4.53
2017-04-17T00:42:05.155Z,4.52
2017-04-17T00:42:09.343Z,4.53
2017-04-17T00:42:13.650Z,4.53
2017-04-17T00:42:17.851Z,4.53
2017-04-17T00:42:22.276Z,4.53
2017-04-17T00:42:26.709Z,4.53
2017-04-17T00:42:31.015Z,4.53
2017-04-17T00:42:35.572Z,4.54
2017-04-17T00:42:40.009Z,4.53
2017-04-17T00:42:44.453Z,4.53
2017-04-17T00:42:48.879Z,4.53
2017-04-17T00:42:53.306Z,4.53
2017-04-17T00:42:57.727Z,4.52
2017-04-17T00:43:02.408Z,4.53
2017-04-17T00:43:06.847Z,4.53
2017-04-17T00:43:11.164Z,4.53
2017-04-17T00:43:15.356Z,4.52
2017-04-17T00:43:19.784Z,4.52
2017-04-17T00:43:24.214Z,4.52
2017-04-17T00:43:28.644Z,4.53
2017-04-17T00:43:33.072Z,4.52
2017-04-17T00:43:37.440Z,4.52
2017-04-17T00:43:41.864Z,4.51
2017-04-17T00:43:46.305Z,4.52
2017-04-17T00:43:50.737Z,4.52
2017-04-17T00:43:55.040Z,4.52
2017-04-17T00:43:59.352Z,4.52
2017-04-17T00:44:03.781Z,4.52
2017-04-17T00:44:08.105Z,4.52
2017-04-17T00:44:12.529Z,4.52
2017-04-17T00:44:16.957Z,4.51
2017-04-17T00:44:21.384Z,4.51
2017-04-17T00:44:25.813Z,4.51
2017-04-17T00:44:30.247Z,4.51
2017-04-17T00:44:34.556Z,4.5
2017-04-17T00:44:38.989Z,4.5
2017-04-17T00:44:43.410Z,4.5
2017-04-17T00:44:47.840Z,4.5
2017-04-17T00:44:52.264Z,4.5
2017-04-17T00:44:56.687Z,4.49
2017-04-17T00:45:01.113Z,4.49
2017-04-17T00:45:05.790Z,4.49
2017-04-17T00:45:10.217Z,4.49
2017-04-17T00:45:14.646Z,4.49
2017-04-17T00:45:19.070Z,4.49
2017-04-17T00:45:23.495Z,4.48
2017-04-17T00:45:27.912Z,4.49
2017-04-17T00:45:32.344Z,4.48
2017-04-17T00:45:36.535Z,4.49
2017-04-17T00:45:40.959Z,4.48
2017-04-17T00:45:45.384Z,4.48
2017-04-17T00:45:49.812Z,4.48
2017-04-17T00:45:54.251Z,4.47
2017-04-17T00:45:58.815Z,4.47
2017-04-17T00:46:03.237Z,4.47
2017-04-17T00:46:07.546Z,4.47
2017-04-17T00:46:11.982Z,4.47
2017-04-17T00:46:16.296Z,4.47
2017-04-17T00:46:20.717Z,4.46
2017-04-17T00:46:25.142Z,4.46
2017-04-17T00:46:29.447Z,4.45
2017-04-17T00:46:33.872Z,4.44
2017-04-17T00:46:38.207Z,4.44
2017-04-17T00:46:42.637Z,4.44
2017-04-17T00:46:47.058Z,4.44
2017-04-17T00:46:51.488Z,4.45
2017-04-17T00:46:55.797Z,4.43
2017-04-17T00:47:00.340Z,4.43
2017-04-17T00:47:04.769Z,4.42
2017-04-17T00:47:09.192Z,4.42
2017-04-17T00:47:13.510Z,4.41
2017-04-17T00:47:17.938Z,4.41
2017-04-17T00:47:22.262Z,4.41
2017-04-17T00:47:26.686Z,4.41
2017-04-17T00:47:30.870Z,4.4
2017-04-17T00:47:35.180Z,4.4
2017-04-17T00:47:39.614Z,4.38
2017-04-17T00:47:44.064Z,4.39
2017-04-17T00:47:48.373Z,4.39
2017-04-17T00:47:52.803Z,4.37
2017-04-17T00:47:57.226Z,4.38
2017-04-17T00:48:01.652Z,4.37
2017-04-17T00:48:06.081Z,4.36
2017-04-17T00:48:10.614Z,4.36
2017-04-17T00:48:14.973Z,4.36
2017-04-17T00:48:19.394Z,4.36
2017-04-17T00:48:23.833Z,4.35
2017-04-17T00:48:28.266Z,4.35
2017-04-17T00:48:32.379Z,4.35
2017-04-17T00:48:36.691Z,4.34
2017-04-17T00:48:41.125Z,4.34
2017-04-17T00:48:45.557Z,4.34
2017-04-17T00:48:49.980Z,4.34
2017-04-17T00:48:54.420Z,4.33
2017-04-17T00:48:58.842Z,4.32
2017-04-17T00:49:03.264Z,4.32
2017-04-17T00:49:07.577Z,4.3
2017-04-17T00:49:12.007Z,4.31
2017-04-17T00:49:16.492Z,4.3
2017-04-17T00:49:20.985Z,4.29
2017-04-17T00:49:25.296Z,4.29
2017-04-17T00:49:29.724Z,4.28
2017-04-17T00:49:34.150Z,4.28
2017-04-17T00:49:38.577Z,4.28
2017-04-17T00:49:43.039Z,4.26
2017-04-17T00:49:47.464Z,4.25
2017-04-17T00:49:51.885Z,4.26
2017-04-17T00:49:56.313Z,4.25
2017-04-17T00:50:00.633Z,4.25
2017-04-17T00:50:05.164Z,4.24
2017-04-17T00:50:09.473Z,4.24
2017-04-17T00:50:13.898Z,4.22
2017-04-17T00:50:18.333Z,4.22
2017-04-17T00:50:22.763Z,4.21
2017-04-17T00:50:27.184Z,4.21
2017-04-17T00:50:31.679Z,4.21
2017-04-17T00:50:35.997Z,4.2
2017-04-17T00:50:40.423Z,4.2
2017-04-17T00:50:44.850Z,4.2
2017-04-17T00:50:49.184Z,4.19
2017-04-17T00:50:53.609Z,4.17
2017-04-17T00:50:58.024Z,4.18
2017-04-17T00:51:02.449Z,4.17
2017-04-17T00:51:06.887Z,4.17
2017-04-17T00:51:11.195Z,4.17
2017-04-17T00:51:15.616Z,4.16
2017-04-17T00:51:19.921Z,4.15
2017-04-17T00:51:24.350Z,4.14
2017-04-17T00:51:28.804Z,4.14
2017-04-17T00:51:33.303Z,4.13
2017-04-17T00:51:37.614Z,4.13
2017-04-17T00:51:41.918Z,4.13
2017-04-17T00:51:46.226Z,4.12
2017-04-17T00:51:50.655Z,4.1
2017-04-17T00:51:55.078Z,4.1
2017-04-17T00:51:59.503Z,4.1
2017-04-17T00:52:04.045Z,4.09
2017-04-17T00:52:08.235Z,4.09
2017-04-17T00:52:12.663Z,4.08
2017-04-17T00:52:16.611Z,4.08
2017-04-17T00:52:21.046Z,4.07
2017-04-17T00:52:25.468Z,4.07
2017-04-17T00:52:29.899Z,4.06
2017-04-17T00:52:34.334Z,4.06
2017-04-17T00:52:38.844Z,4.05
2017-04-17T00:52:43.283Z,4.05
2017-04-17T00:52:47.799Z,4.04
2017-04-17T00:52:52.231Z,4.04
2017-04-17T00:52:56.687Z,4.03
2017-04-17T00:53:01.108Z,4.02
2017-04-17T00:53:05.576Z,4.01
2017-04-17T00:53:09.761Z,4.01
2017-04-17T00:53:13.843Z,4
2017-04-17T00:53:18.267Z,4
2017-04-17T00:53:22.693Z,3.99
2017-04-17T00:53:27.121Z,3.98
2017-04-17T00:53:31.540Z,3.98
2017-04-17T00:53:35.853Z,3.99
2017-04-17T00:53:40.280Z,3.97
2017-04-17T00:53:44.700Z,3.97
2017-04-17T00:53:49.125Z,3.96
2017-04-17T00:53:53.446Z,3.96
2017-04-17T00:53:57.754Z,3.95
2017-04-17T00:54:02.836Z,3.94
2017-04-17T00:54:07.260Z,3.94
2017-04-17T00:54:11.452Z,3.94
2017-04-17T00:54:15.761Z,3.94
2017-04-17T00:54:20.224Z,3.93
2017-04-17T00:54:24.660Z,3.93
2017-04-17T00:54:29.091Z,3.92
2017-04-17T00:54:33.517Z,3.92
2017-04-17T00:54:37.937Z,3.91
2017-04-17T00:54:42.363Z,3.91
2017-04-17T00:54:46.794Z,3.91
2017-04-17T00:54:51.221Z,3.89
2017-04-17T00:54:55.725Z,3.9
2017-04-17T00:55:00.152Z,3.89
2017-04-17T00:55:04.603Z,3.89
2017-04-17T00:55:08.785Z,3.88
2017-04-17T00:55:13.206Z,3.88
2017-04-17T00:55:17.511Z,3.88
2017-04-17T00:55:21.935Z,3.87
2017-04-17T00:55:26.364Z,3.87
2017-04-17T00:55:30.788Z,3.86
2017-04-17T00:55:35.213Z,3.86
2017-04-17T00:55:39.634Z,3.86
2017-04-17T00:55:44.065Z,3.86
2017-04-17T00:55:48.378Z,3.84
2017-04-17T00:55:52.800Z,3.85
2017-04-17T00:55:57.109Z,3.84
2017-04-17T00:56:01.536Z,3.84
2017-04-17T00:56:06.198Z,3.82
2017-04-17T00:56:10.634Z,3.82
2017-04-17T00:56:14.939Z,3.82
2017-04-17T00:56:19.364Z,3.82
2017-04-17T00:56:23.798Z,3.81
2017-04-17T00:56:28.225Z,3.81
2017-04-17T00:56:32.671Z,3.81
2017-04-17T00:56:37.097Z,3.79
2017-04-17T00:56:41.521Z,3.79
2017-04-17T00:56:45.947Z,3.79
2017-04-17T00:56:50.381Z,3.79
2017-04-17T00:56:54.811Z,3.79
2017-04-17T00:56:59.113Z,3.78
2017-04-17T00:57:03.298Z,3.77
2017-04-17T00:57:07.609Z,3.77
2017-04-17T00:57:12.224Z,3.76
2017-04-17T00:57:16.561Z,3.77
2017-04-17T00:57:20.987Z,3.76
2017-04-17T00:57:25.413Z,3.76
2017-04-17T00:57:29.839Z,3.75
2017-04-17T00:57:34.270Z,3.74
2017-04-17T00:57:38.697Z,3.75
2017-04-17T00:57:43.129Z,3.75
2017-04-17T00:57:47.442Z,3.75
2017-04-17T00:57:51.882Z,3.74
2017-04-17T00:57:56.188Z,3.73
2017-04-17T00:58:00.620Z,3.74
2017-04-17T00:58:05.049Z,3.73
2017-04-17T00:58:09.353Z,3.73
2017-04-17T00:58:13.561Z,3.72
2017-04-17T00:58:18.113Z,3.72
2017-04-17T00:58:22.536Z,3.72
2017-04-17T00:58:26.963Z,3.72
2017-04-17T00:58:31.403Z,3.71
2017-04-17T00:58:35.837Z,3.71
2017-04-17T00:58:40.260Z,3.71
2017-04-17T00:58:44.685Z,3.71
2017-04-17T00:58:49.115Z,3.71